Map

Track Data

SID SEASON NUMBER BASIN SUBBASIN NAME ISO_TIME NATURE LAT LON WMO_WIND WMO_PRES WMO_AGENCY TRACK_TYPE DIST2LAND LANDFALL IFLAG USA_AGENCY USA_ATCF_ID USA_LAT USA_LON USA_RECORD USA_STATUS USA_WIND USA_PRES USA_SSHS USA_R34_NE USA_R34_SE USA_R34_SW USA_R34_NW USA_R50_NE USA_R50_SE USA_R50_SW USA_R50_NW USA_R64_NE USA_R64_SE USA_R64_SW USA_R64_NW USA_POCI USA_ROCI USA_RMW USA_EYE TOKYO_LAT TOKYO_LON TOKYO_GRADE TOKYO_WIND TOKYO_PRES TOKYO_R50_DIR TOKYO_R50_LONG TOKYO_R50_SHORT TOKYO_R30_DIR TOKYO_R30_LONG TOKYO_R30_SHORT TOKYO_LAND CMA_LAT CMA_LON CMA_CAT CMA_WIND CMA_PRES HKO_LAT HKO_LON HKO_CAT HKO_WIND HKO_PRES NEWDELHI_LAT NEWDELHI_LON NEWDELHI_GRADE NEWDELHI_WIND NEWDELHI_PRES NEWDELHI_CI NEWDELHI_DP NEWDELHI_POCI REUNION_LAT REUNION_LON REUNION_TYPE REUNION_WIND REUNION_PRES REUNION_TNUM REUNION_CI REUNION_RMW REUNION_R34_NE REUNION_R34_SE REUNION_R34_SW REUNION_R34_NW REUNION_R50_NE REUNION_R50_SE REUNION_R50_SW REUNION_R50_NW REUNION_R64_NE REUNION_R64_SE REUNION_R64_SW REUNION_R64_NW BOM_LAT BOM_LON BOM_TYPE BOM_WIND BOM_PRES BOM_TNUM BOM_CI BOM_RMW BOM_R34_NE BOM_R34_SE BOM_R34_SW BOM_R34_NW BOM_R50_NE BOM_R50_SE BOM_R50_SW BOM_R50_NW BOM_R64_NE BOM_R64_SE BOM_R64_SW BOM_R64_NW BOM_ROCI BOM_POCI BOM_EYE BOM_POS_METHOD BOM_PRES_METHOD NADI_LAT NADI_LON NADI_CAT NADI_WIND NADI_PRES WELLINGTON_LAT WELLINGTON_LON WELLINGTON_WIND WELLINGTON_PRES DS824_LAT DS824_LON DS824_STAGE DS824_WIND DS824_PRES TD9636_LAT TD9636_LON TD9636_STAGE TD9636_WIND TD9636_PRES TD9635_LAT TD9635_LON TD9635_WIND TD9635_PRES TD9635_ROCI NEUMANN_LAT NEUMANN_LON NEUMANN_CLASS NEUMANN_WIND NEUMANN_PRES MLC_LAT MLC_LON MLC_CLASS MLC_WIND MLC_PRES USA_GUST BOM_GUST BOM_GUST_PER REUNION_GUST REUNION_GUST_PER USA_SEAHGT USA_SEARAD_NE USA_SEARAD_SE USA_SEARAD_SW USA_SEARAD_NW STORM_SPEED STORM_DIR
1975295N14252 1975 116 EP MM OLIVIA 1975-10-22 00:00:00 TS 13.7000 -107.600 25 hurdat_epa main 676 676 O________OO___ hurdat_epa EP151975 13.7000 -107.600 TD 25 -1 13.7000 -107.600 TC 25 13.7000 -107.600 1 30 15 290
1975295N14252 1975 116 EP MM OLIVIA 1975-10-22 03:00:00 TS 13.9500 -108.320 main 691 691 P________PP___ EP151975 13.9480 -108.327 TD 30 -1 13.9480 -108.327 TC 30 13.9583 -108.289 1 31 14 290
1975295N14252 1975 116 EP MM OLIVIA 1975-10-22 06:00:00 TS 14.2025 -108.989 35 hurdat_epa main 716 714 O________OP___ hurdat_epa EP151975 14.2000 -109.000 TS 35 0 14.2000 -109.000 TC 35 14.2123 -108.943 1 32 13 293
1975295N14252 1975 116 EP MM OLIVIA 1975-10-22 09:00:00 TS 14.4579 -109.559 main 733 732 P________PP___ EP151975 14.4574 -109.568 TS 35 0 14.4574 -109.568 TC 35 14.4601 -109.526 1 33 11 297
1975295N14252 1975 116 EP MM OLIVIA 1975-10-22 12:00:00 TS 14.7000 -110.000 35 hurdat_epa main 747 747 O________OO___ hurdat_epa EP151975 14.7000 -110.000 TS 35 0 14.7000 -110.000 TC 35 14.7000 -110.000 2 35 9 302
1975295N14252 1975 116 EP MM OLIVIA 1975-10-22 15:00:00 TS 14.9061 -110.310 main 755 754 P________PP___ EP151975 14.8998 -110.303 TS 35 0 14.8998 -110.303 TC 35 14.9313 -110.340 2 36 6 310
1975295N14252 1975 116 EP MM OLIVIA 1975-10-22 18:00:00 TS 15.1113 -110.513 35 hurdat_epa main 754 747 O________OP___ hurdat_epa EP151975 15.1000 -110.500 TS 35 0 15.1000 -110.500 TC 35 15.1565 -110.566 2 37 6 322
1975295N14252 1975 116 EP MM OLIVIA 1975-10-22 21:00:00 TS 15.3557 -110.680 main 747 740 P________PP___ EP151975 15.3500 -110.673 TS 35 0 15.3500 -110.673 TC 35 15.3785 -110.708 2 38 6 330
1975295N14252 1975 116 EP MM OLIVIA 1975-10-23 00:00:00 TS 15.6000 -110.800 35 hurdat_epa main 741 734 O________OO___ hurdat_epa EP151975 15.6000 -110.800 TS 35 0 15.6000 -110.800 TC 35 15.6000 -110.800 2 40 5 332
1975295N14252 1975 116 EP MM OLIVIA 1975-10-23 03:00:00 TS 15.8033 -110.922 main 736 729 P________PP___ EP151975 15.8000 -110.923 TS 37 0 15.8000 -110.923 TC 37 15.8168 -110.922 2 43 5 334
1975295N14252 1975 116 EP MM OLIVIA 1975-10-23 06:00:00 TS 16.0070 -110.999 40 hurdat_epa main 731 718 O________OP___ hurdat_epa EP151975 16.0000 -111.000 TS 40 0 16.0000 -111.000 TC 40 16.0348 -110.997 2 47 5 347
1975295N14252 1975 116 EP MM OLIVIA 1975-10-23 09:00:00 TS 16.2521 -111.029 main 712 700 P________PP___ EP151975 16.2500 -111.030 TS 42 0 16.2500 -111.030 TC 42 16.2605 -111.025 2 51 5 0
1975295N14252 1975 116 EP MM OLIVIA 1975-10-23 12:00:00 TS 16.5000 -111.000 45 hurdat_epa main 700 679 O________OO___ hurdat_epa EP151975 16.5000 -111.000 TS 45 0 16.5000 -111.000 TC 45 16.5000 -111.000 2 55 5 12
1975295N14252 1975 116 EP MM OLIVIA 1975-10-23 15:00:00 TS 16.6895 -110.929 main 679 657 P________PP___ EP151975 16.6850 -110.922 TS 60 0 16.6850 -110.922 TC 60 16.7077 -110.953 2 61 4 24
1975295N14252 1975 116 EP MM OLIVIA 1975-10-23 18:00:00 TS 16.9075 -110.811 75 hurdat_epa main 657 631 O________OP___ hurdat_epa EP151975 16.9000 -110.800 HU 75 1 16.9000 -110.800 TC 75 16.9373 -110.854 2 67 6 25
1975295N14252 1975 116 EP MM OLIVIA 1975-10-23 21:00:00 TS 17.2026 -110.678 main 631 590 P________PP___ EP151975 17.1975 -110.672 HU 77 1 17.1975 -110.672 TC 77 17.2233 -110.703 2 73 8 23
1975295N14252 1975 116 EP MM OLIVIA 1975-10-24 00:00:00 TS 17.6000 -110.500 80 hurdat_epa main 590 537 O________OO___ hurdat_epa EP151975 17.6000 -110.500 HU 80 1 17.6000 -110.500 TC 80 17.6000 -110.500 4 80 10 23
1975295N14252 1975 116 EP MM OLIVIA 1975-10-24 03:00:00 TS 18.1069 -110.280 main 537 469 P________PP___ EP151975 18.1050 -110.280 HU 80 1 18.1050 -110.280 TC 80 18.1145 -110.283 4 82 12 23
1975295N14252 1975 116 EP MM OLIVIA 1975-10-24 06:00:00 TS 18.7034 -110.002 80 hurdat_epa main 469 402 O________OP___ hurdat_epa EP151975 18.7000 -110.000 HU 80 1 18.7000 -110.000 TC 80 18.7171 -110.012 4 85 14 24
1975295N14252 1975 116 EP MM OLIVIA 1975-10-24 09:00:00 TS 19.3461 -109.687 main 402 328 P________PP___ EP151975 19.3424 -109.687 HU 85 2 19.3424 -109.687 TC 85 19.3612 -109.685 4 87 15 27
1975295N14252 1975 116 EP MM OLIVIA 1975-10-24 12:00:00 TS 20.0000 -109.300 90 hurdat_epa main 328 273 O________OO___ hurdat_epa EP151975 20.0000 -109.300 HU 90 2 20.0000 -109.300 TC 90 20.0000 -109.300 4 90 15 33
1975295N14252 1975 116 EP MM OLIVIA 1975-10-24 15:00:00 TS 20.6183 -108.824 main 277 244 P________PP___ EP151975 20.6225 -108.822 HU 90 2 20.6225 -108.822 TC 90 20.6016 -108.830 4 91 15 38
1975295N14252 1975 116 EP MM OLIVIA 1975-10-24 18:00:00 TS 21.1967 -108.302 90 hurdat_epa main 244 219 O________OP___ hurdat_epa EP151975 21.2000 -108.300 HU 90 2 21.2000 -108.300 TC 90 21.1835 -108.310 4 92 15 41
1975295N14252 1975 116 EP MM OLIVIA 1975-10-24 21:00:00 TS 21.7286 -107.796 main 219 143 P________PP___ EP151975 21.7298 -107.800 HU 92 2 21.7298 -107.800 TC 92 21.7236 -107.784 4 93 14 43
1975295N14252 1975 116 EP MM OLIVIA 1975-10-25 00:00:00 TS 22.2000 -107.300 95 hurdat_epa main 143 75 O________OO___ hurdat_epa EP151975 22.2000 -107.300 HU 95 2 22.2000 -107.300 TC 95 22.2000 -107.300 4 95 13 45
1975295N14252 1975 116 EP MM OLIVIA 1975-10-25 03:00:00 TS 22.6236 -106.819 main 75 15 P________PP___ EP151975 22.6298 -106.800 HU 97 3 22.6298 -106.800 TC 97 22.5988 -106.895 4 12 48
1975295N14252 1975 116 EP MM OLIVIA 1975-10-25 06:00:00 TS 22.9869 -106.352 100 hurdat_epa main 15 0 O________OP___ hurdat_epa EP151975 23.0000 -106.300 HU 100 3 23.0000 -106.300 TC 100 22.9343 -106.559 4 11 52
1975295N14252 1975 116 EP MM OLIVIA 1975-10-25 09:00:00 TS 23.2978 -105.894 main 0 0 P________PP___ EP151975 23.3153 -105.800 HU 87 2 23.3153 -105.800 TC 87 23.2277 -106.268 4 10 55
1975295N14252 1975 116 EP MM OLIVIA 1975-10-25 12:00:00 TS 23.5800 -105.440 75 hurdat_epa main 0 O________OO___ hurdat_epa EP151975 23.6000 -105.300 HU 75 1 23.6000 -105.300 TC 75 23.5000 -106.000 6 10 56

About IBTrACS Database

This database is a web-friendly format of International Best Track Archive for Climate Stewardship (IBTrACS), a global best track data archive curated by NOAA dating back to 1842.

Updated: 2021-12-01